Time;durP1;ratioP1;P1;durP2;ratioP2;P2;SDS_P1;SDS_P2;PMS_P1;PMS_P2;Temp;Humidity;BMP_temperature;BMP_pressure;BME280_temperature;BME280_humidity;BME280_pressure;Samples;Min_cycle;Max_cycle;Signal;HPM_P1;HPM_P2
2022/09/25 00:01:10;;;;;;;2.40;1.90;;;;;;;5.87;82.11;98905.63;104601;1272;73834;-24
2022/09/25 00:03:38;;;;;;;3.30;1.90;;;;;;;6.47;80.64;98905.59;104822;1273;62048;-24
2022/09/25 00:06:11;;;;;;;2.90;2.30;;;;;;;6.59;79.80;98904.98;104725;1273;62993;-25
2022/09/25 00:08:38;;;;;;;3.10;2.00;;;;;;;6.47;79.81;98908.55;104292;1273;76651;-24
2022/09/25 00:11:07;;;;;;;3.20;2.20;;;;;;;6.27;79.89;98906.02;104717;1273;77110;-24
2022/09/25 00:13:35;;;;;;;2.50;2.00;;;;;;;6.06;80.30;98908.92;104615;1272;75354;-24
2022/09/25 00:16:02;;;;;;;2.40;1.60;;;;;;;5.89;81.10;98907.92;104706;1271;61859;-24
2022/09/25 00:21:16;;;;;;;6.10;2.10;;;;;;;6.87;79.51;98907.90;105070;1272;76444;-25
2022/09/25 00:23:44;;;;;;;3.80;2.30;;;;;;;6.92;78.73;98908.45;104665;1273;77363;-25
2022/09/25 00:26:12;;;;;;;3.70;2.30;;;;;;;6.71;78.70;98908.98;104865;1273;75498;-25
2022/09/25 00:28:40;;;;;;;3.50;2.50;;;;;;;6.47;79.43;98908.34;104698;1274;63219;-24
2022/09/25 00:31:08;;;;;;;2.80;2.10;;;;;;;6.26;80.19;98904.73;104613;1273;61727;-25
2022/09/25 00:33:35;;;;;;;2.10;1.70;;;;;;;6.10;81.30;98901.14;104397;1273;76660;-25
2022/09/25 00:36:05;;;;;;;2.30;1.60;;;;;;;6.55;81.59;98902.27;104646;1273;77130;-25
2022/09/25 00:38:33;;;;;;;5.50;2.20;;;;;;;7.19;80.09;98904.35;104553;1273;74122;-25
2022/09/25 00:41:00;;;;;;;3.10;2.30;;;;;;;7.33;79.25;98896.45;104605;1274;62242;-24
2022/09/25 00:43:43;;;;;;;4.10;2.50;;;;;;;7.24;78.96;98897.27;104629;1273;62900;-25
2022/09/25 00:46:37;;;;;;;4.30;2.50;;;;;;;7.07;79.25;98893.75;104619;1276;75594;-24
2022/09/25 00:49:08;;;;;;;3.40;2.20;;;;;;;6.84;79.32;98891.02;104676;1273;76887;-24
2022/09/25 00:51:41;;;;;;;3.00;1.70;;;;;;;6.69;80.24;98888.44;104615;1273;75356;-24
2022/09/25 00:54:14;;;;;;;3.20;2.10;;;;;;;7.19;80.23;98885.55;104457;1273;62079;-25
2022/09/25 00:56:43;;;;;;;2.90;2.30;;;;;;;7.76;78.56;98882.38;104596;1273;62133;-24
2022/09/25 00:59:15;;;;;;;4.50;2.10;;;;;;;7.84;78.14;98874.87;104607;1274;76633;-24
2022/09/25 01:01:42;;;;;;;3.30;2.30;;;;;;;7.71;78.05;98877.06;104337;1273;77008;-24
2022/09/25 01:04:11;;;;;;;3.60;2.10;;;;;;;7.49;78.36;98878.07;104643;1273;74112;-24
2022/09/25 01:06:40;;;;;;;3.30;2.40;;;;;;;7.26;78.94;98876.75;104728;1273;62196;-25
2022/09/25 01:09:07;;;;;;;4.30;2.50;;;;;;;7.04;79.17;98878.08;104534;1274;61898;-24
2022/09/25 01:11:34;;;;;;;3.40;1.80;;;;;;;6.85;80.02;98876.80;104620;1273;76708;-24
2022/09/25 01:14:03;;;;;;;5.00;2.00;;;;;;;7.33;80.43;98877.98;104698;1273;77020;-24
2022/09/25 01:16:38;;;;;;;3.30;2.30;;;;;;;7.97;78.79;98880.88;104475;1273;75406;-24
2022/09/25 01:19:14;;;;;;;3.60;2.60;;;;;;;8.08;77.79;98878.84;104635;1273;61803;-25
2022/09/25 01:21:43;;;;;;;3.40;2.20;;;;;;;7.92;77.76;98881.22;104587;1273;62954;-25
2022/09/25 01:24:23;;;;;;;4.40;3.00;;;;;;;7.72;78.11;98883.55;104691;1273;76688;-24
2022/09/25 01:27:29;;;;;;;7.30;2.70;;;;;;;7.41;78.63;98880.73;104648;1272;76144;-24
2022/09/25 01:30:08;;;;;;;3.40;2.30;;;;;;;7.17;79.73;98876.32;104634;1271;75335;-25
2022/09/25 01:32:40;;;;;;;3.00;1.70;;;;;;;7.07;80.05;98879.10;104617;1272;63470;-23
2022/09/25 01:35:16;;;;;;;2.80;1.90;;;;;;;7.68;79.84;98877.05;105063;1273;61814;-23
2022/09/25 01:37:55;;;;;;;3.00;2.00;;;;;;;8.33;78.25;98876.29;104663;1273;75271;-24
2022/09/25 01:40:39;;;;;;;3.50;2.50;;;;;;;8.36;77.07;98872.27;104646;1271;75886;-23
2022/09/25 01:43:17;;;;;;;3.80;2.20;;;;;;;8.11;77.30;98871.54;104668;1273;74121;-24
2022/09/25 01:45:58;;;;;;;3.40;2.50;;;;;;;7.83;77.79;98872.70;104683;1271;63068;-23
2022/09/25 01:48:27;;;;;;;6.20;2.60;;;;;;;7.51;78.44;98873.28;104476;1274;62760;-24
2022/09/25 01:51:00;;;;;;;3.30;1.80;;;;;;;7.24;79.11;98872.23;104677;1271;76582;-23
2022/09/25 01:53:32;;;;;;;2.00;1.60;;;;;;;7.50;79.28;98878.86;104476;1273;76943;-23
2022/09/25 01:56:03;;;;;;;3.80;2.10;;;;;;;7.93;78.47;98877.55;104616;1276;75133;-24
2022/09/25 01:58:40;;;;;;;3.20;2.20;;;;;;;7.88;77.91;98877.50;104547;1274;62187;-25
2022/09/25 02:01:24;;;;;;;3.40;2.20;;;;;;;7.61;78.18;98879.16;104639;1276;63032;-25
2022/09/25 02:04:07;;;;;;;3.30;2.30;;;;;;;7.22;78.67;98878.89;104497;1275;76523;-25
2022/09/25 02:06:34;;;;;;;3.80;2.30;;;;;;;6.87;79.52;98877.36;104710;1273;76834;-25
2022/09/25 02:09:14;;;;;;;2.70;1.70;;;;;;;6.63;80.18;98879.30;104742;1271;75577;-26
2022/09/25 02:11:43;;;;;;;3.40;2.10;;;;;;;7.05;80.06;98883.73;104652;1273;63171;-25
2022/09/25 02:14:14;;;;;;;3.00;2.20;;;;;;;7.50;78.80;98879.55;104686;1274;62741;-26
2022/09/25 02:16:42;;;;;;;3.40;2.30;;;;;;;7.50;78.30;98882.30;104638;1273;76405;-23
2022/09/25 02:22:22;;;;;;;3.30;2.40;;;;;;;6.86;78.61;98882.75;104532;1273;74531;-26
2022/09/25 02:24:55;;;;;;;5.70;2.20;;;;;;;6.50;79.78;98887.27;104762;1273;63121;-26
2022/09/25 02:27:26;;;;;;;2.60;1.70;;;;;;;6.26;80.74;98887.30;104680;1271;63525;-25
2022/09/25 02:29:54;;;;;;;2.80;1.80;;;;;;;6.67;80.90;98885.95;104639;1275;76626;-26
2022/09/25 02:32:24;;;;;;;3.50;2.10;;;;;;;7.22;79.72;98884.80;104659;1273;77083;-25
2022/09/25 02:34:51;;;;;;;3.10;2.30;;;;;;;7.26;79.09;98883.46;104557;1271;75329;-26
2022/09/25 02:37:18;;;;;;;3.40;2.40;;;;;;;7.07;79.11;98883.61;104706;1272;63326;-25
2022/09/25 02:39:48;;;;;;;2.60;2.10;;;;;;;6.76;79.33;98879.96;104698;1273;63063;-25
2022/09/25 02:42:35;;;;;;;2.70;2.00;;;;;;;6.39;80.44;98881.44;104719;1271;76653;-25
2022/09/25 02:45:15;;;;;;;2.00;1.60;;;;;;;6.04;81.88;98881.16;104458;1274;76989;-25
2022/09/25 02:48:01;;;;;;;3.00;1.90;;;;;;;6.52;81.03;98878.32;104688;1271;75490;-25
2022/09/25 02:50:45;;;;;;;3.30;2.10;;;;;;;7.00;79.54;98881.01;104655;1274;62753;-25
2022/09/25 02:53:36;;;;;;;5.50;2.60;;;;;;;6.91;79.27;98881.40;104530;1275;62853;-25
2022/09/25 02:56:07;;;;;;;2.70;2.40;;;;;;;6.62;79.75;98880.61;104603;1273;76545;-24
2022/09/25 02:58:45;;;;;;;2.90;2.30;;;;;;;6.32;80.77;98882.22;104559;1272;77072;-25
2022/09/25 03:01:14;;;;;;;4.10;2.60;;;;;;;6.05;81.36;98882.14;104738;1271;75534;-25
2022/09/25 03:03:41;;;;;;;2.60;1.90;;;;;;;5.86;81.49;98882.46;104837;1272;63536;-25
2022/09/25 03:06:09;;;;;;;3.30;1.60;;;;;;;6.27;81.34;98878.63;104758;1274;61145;-25
2022/09/25 03:08:37;;;;;;;4.40;2.10;;;;;;;6.81;80.06;98876.40;104538;1275;74340;-25
2022/09/25 03:11:05;;;;;;;5.10;2.10;;;;;;;6.86;79.60;98880.52;104653;1276;77070;-25
2022/09/25 03:13:32;;;;;;;11.90;3.00;;;;;;;6.65;79.68;98882.63;104548;1274;75169;-24
2022/09/25 03:16:06;;;;;;;3.80;2.50;;;;;;;6.38;80.20;98878.23;104795;1272;62757;-25
2022/09/25 03:18:33;;;;;;;2.90;2.20;;;;;;;6.10;80.48;98881.43;105063;1272;61942;-25
2022/09/25 03:21:00;;;;;;;2.90;1.80;;;;;;;5.86;80.92;98877.27;104929;1272;77035;-25
2022/09/25 03:23:27;;;;;;;3.20;1.70;;;;;;;6.18;81.26;98875.77;104713;1274;76707;-25
2022/09/25 03:25:54;;;;;;;3.80;2.00;;;;;;;6.64;79.69;98875.11;104599;1271;73132;-25
2022/09/25 03:28:22;;;;;;;5.90;2.60;;;;;;;6.67;79.17;98872.51;104476;1274;62952;-25
2022/09/25 03:30:57;;;;;;;4.00;3.00;;;;;;;6.43;79.62;98875.66;104738;1271;63021;-25
2022/09/25 03:33:24;;;;;;;4.90;3.30;;;;;;;6.12;80.54;98876.84;104754;1274;75571;-25
2022/09/25 03:36:05;;;;;;;4.30;2.90;;;;;;;5.85;81.35;98875.98;104960;1271;77056;-25
2022/09/25 03:38:32;;;;;;;3.40;2.10;;;;;;;5.60;81.31;98874.63;104465;1277;75385;-26
2022/09/25 03:41:00;;;;;;;2.50;1.70;;;;;;;5.96;80.72;98874.91;104676;1273;63465;-25
2022/09/25 03:43:32;;;;;;;4.60;2.40;;;;;;;6.43;79.03;98875.50;105102;1272;63134;-25
2022/09/25 03:45:59;;;;;;;4.00;2.00;;;;;;;6.41;78.26;98872.37;105053;1274;76567;-25
2022/09/25 03:48:26;;;;;;;2.60;1.40;;;;;;;6.16;78.23;98874.52;104653;1275;77128;-25
2022/09/25 03:50:55;;;;;;;2.70;1.80;;;;;;;5.82;78.43;98873.05;104968;1274;75365;-25
2022/09/25 03:53:24;;;;;;;1.70;1.50;;;;;;;5.44;78.93;98874.58;104795;1271;63065;-25
2022/09/25 03:55:51;;;;;;;1.80;1.40;;;;;;;5.10;79.46;98876.01;104888;1272;61608;-25
2022/09/25 03:58:18;;;;;;;4.30;2.60;;;;;;;4.81;80.09;98874.81;104722;1274;74287;-25
2022/09/25 04:00:46;;;;;;;1.40;1.10;;;;;;;5.11;80.34;98877.33;104753;1272;75023;-25
2022/09/25 04:03:13;;;;;;;2.10;1.60;;;;;;;5.58;79.05;98874.28;104687;1271;75416;-25
2022/09/25 04:05:42;;;;;;;2.60;1.60;;;;;;;5.56;78.36;98880.24;104720;1272;62007;-25
2022/09/25 04:08:09;;;;;;;4.70;2.50;;;;;;;5.31;78.42;98876.46;104745;1273;61929;-25
2022/09/25 04:10:37;;;;;;;2.80;2.10;;;;;;;5.04;78.64;98879.48;104685;1272;75382;-25
2022/09/25 04:13:05;;;;;;;3.00;2.10;;;;;;;4.78;79.20;98880.88;104640;1273;77044;-25
2022/09/25 04:15:33;;;;;;;2.30;2.00;;;;;;;4.51;79.87;98880.40;104666;1271;75428;-25
2022/09/25 04:18:00;;;;;;;3.00;1.70;;;;;;;4.29;80.51;98880.78;104739;1271;63602;-25
2022/09/25 04:20:32;;;;;;;2.90;1.90;;;;;;;4.75;80.95;98875.34;104901;1272;61689;-25
2022/09/25 04:22:59;;;;;;;3.00;1.80;;;;;;;5.37;79.68;98872.78;104772;1271;76532;-25
2022/09/25 04:25:26;;;;;;;4.90;2.20;;;;;;;5.49;78.96;98870.31;104630;1274;77084;-25
2022/09/25 04:27:57;;;;;;;3.60;1.60;;;;;;;5.36;78.59;98871.48;104813;1273;74380;-25
2022/09/25 04:30:25;;;;;;;3.50;2.10;;;;;;;5.10;78.46;98872.70;104699;1272;61954;-25
2022/09/25 04:35:40;;;;;;;5.70;2.50;;;;;;;4.49;79.92;98877.78;104718;1273;76289;-25
2022/09/25 04:38:07;;;;;;;4.90;1.60;;;;;;;4.31;81.54;98879.96;104638;1276;77007;-25
2022/09/25 04:40:35;;;;;;;2.80;1.90;;;;;;;4.86;81.58;98876.41;104683;1271;74462;-25
2022/09/25 04:43:03;;;;;;;3.30;2.00;;;;;;;5.54;79.86;98876.35;104730;1272;62057;-25
2022/09/25 04:45:33;;;;;;;2.50;1.90;;;;;;;5.77;79.13;98874.23;104714;1276;63281;-25
2022/09/25 04:48:00;;;;;;;2.70;2.20;;;;;;;5.75;78.92;98871.43;104534;1275;76642;-24
2022/09/25 04:50:27;;;;;;;3.20;2.40;;;;;;;5.68;78.93;98872.21;104983;1271;75540;-24
2022/09/25 04:53:00;;;;;;;2.70;2.20;;;;;;;5.63;79.38;98869.60;105126;1271;74121;-24
2022/09/25 04:55:27;;;;;;;9.30;2.80;;;;;;;5.65;79.52;98868.64;104988;1271;62313;-24
2022/09/25 05:01:07;;;;;;;3.80;2.40;;;;;;;6.66;78.59;98869.83;104536;1271;76520;-24
2022/09/25 05:03:35;;;;;;;4.40;3.00;;;;;;;7.42;76.53;98873.21;104615;1276;74962;-23
2022/09/25 05:06:02;;;;;;;4.90;3.60;;;;;;;7.68;75.20;98878.45;104681;1274;74438;-25
2022/09/25 05:08:29;;;;;;;4.70;3.70;;;;;;;7.73;75.02;98881.08;105034;1271;63050;-24
2022/09/25 05:10:56;;;;;;;6.20;3.20;;;;;;;7.65;74.96;98882.48;105015;1273;63064;-24
2022/09/25 05:13:23;;;;;;;5.20;3.50;;;;;;;7.58;75.08;98881.26;104976;1272;76223;-24
2022/09/25 05:15:50;;;;;;;8.10;3.00;;;;;;;7.48;75.37;98883.16;105021;1271;76582;-24
2022/09/25 05:18:20;;;;;;;5.50;3.10;;;;;;;7.28;75.28;98881.44;105028;1271;75487;-24
2022/09/25 05:20:47;;;;;;;3.40;2.30;;;;;;;7.21;75.81;98874.88;104822;1274;64691;-24
2022/09/25 05:23:15;;;;;;;5.50;3.10;;;;;;;7.74;75.92;98872.99;105045;1272;63037;-24
2022/09/25 05:25:42;;;;;;;4.40;3.20;;;;;;;8.44;74.71;98865.83;104608;1271;76603;-24
2022/09/25 05:28:09;;;;;;;7.90;4.10;;;;;;;8.60;73.83;98860.48;104720;1271;75876;-24
2022/09/25 05:30:37;;;;;;;4.50;3.70;;;;;;;8.50;74.18;98868.33;104586;1273;74418;-24
2022/09/25 05:33:04;;;;;;;6.00;3.70;;;;;;;8.20;74.20;98870.17;104714;1271;61919;-24
2022/09/25 05:35:32;;;;;;;6.10;4.40;;;;;;;7.82;74.99;98870.52;104854;1272;63135;-24
2022/09/25 05:37:59;;;;;;;7.30;4.00;;;;;;;7.61;75.92;98873.25;104772;1274;76563;-24
2022/09/25 05:40:26;;;;;;;5.50;3.60;;;;;;;7.31;77.34;98879.84;104603;1273;77009;-24
2022/09/25 05:42:54;;;;;;;4.40;3.30;;;;;;;7.49;78.27;98881.34;104926;1271;75424;-24
2022/09/25 05:45:22;;;;;;;5.50;3.50;;;;;;;7.95;76.99;98885.20;104992;1273;61861;-24
2022/09/25 05:48:01;;;;;;;5.60;3.50;;;;;;;7.88;76.59;98887.76;105056;1272;61838;-24
2022/09/25 05:50:28;;;;;;;4.20;3.40;;;;;;;7.36;77.84;98890.54;105007;1273;76494;-24
2022/09/25 05:52:56;;;;;;;4.80;3.00;;;;;;;7.25;78.84;98892.36;105055;1272;76953;-24
2022/09/25 05:55:24;;;;;;;4.90;3.50;;;;;;;7.18;79.66;98900.48;104817;1271;75104;-24
2022/09/25 05:57:51;;;;;;;2.70;2.10;;;;;;;7.09;80.54;98902.60;104639;1275;64375;-24
2022/09/25 06:00:18;;;;;;;3.60;2.60;;;;;;;7.63;80.09;98907.02;104777;1274;61988;-24
2022/09/25 06:02:45;;;;;;;3.60;2.70;;;;;;;8.17;78.97;98905.54;104734;1273;76610;-24
2022/09/25 06:05:12;;;;;;;5.40;3.10;;;;;;;8.30;78.37;98901.83;104617;1273;77072;-24
2022/09/25 06:07:39;;;;;;;3.80;2.80;;;;;;;8.17;78.47;98904.10;104614;1273;75620;-24
2022/09/25 06:10:07;;;;;;;4.10;2.60;;;;;;;8.07;79.14;98903.69;104711;1273;62255;-24
2022/09/25 06:12:34;;;;;;;4.10;2.80;;;;;;;8.03;79.14;98901.67;104607;1274;61070;-24
2022/09/25 06:15:01;;;;;;;3.70;2.20;;;;;;;8.00;80.36;98895.16;104608;1273;75228;-24
2022/09/25 06:17:28;;;;;;;4.90;2.70;;;;;;;8.67;79.37;98891.95;104773;1271;75013;-24
2022/09/25 06:19:55;;;;;;;3.70;2.80;;;;;;;9.16;77.79;98889.67;104620;1273;75704;-24
2022/09/25 06:22:22;;;;;;;5.00;3.00;;;;;;;9.23;77.22;98887.52;104582;1274;61167;-24
2022/09/25 06:24:49;;;;;;;5.90;3.10;;;;;;;9.15;77.13;98895.91;104640;1273;63455;-24
2022/09/25 06:27:16;;;;;;;6.50;2.80;;;;;;;9.15;77.14;98893.89;104745;1273;75078;-25
2022/09/25 06:29:43;;;;;;;3.50;2.90;;;;;;;9.07;77.73;98892.55;104658;1273;77429;-24
2022/09/25 06:32:11;;;;;;;5.20;2.60;;;;;;;9.00;78.88;98895.91;104602;1271;75432;-24
2022/09/25 06:34:38;;;;;;;4.10;2.50;;;;;;;9.69;77.81;98896.60;104658;1273;62100;-24
2022/09/25 06:37:05;;;;;;;5.70;3.40;;;;;;;10.07;76.32;98893.34;104811;1272;63015;-24
2022/09/25 06:39:32;;;;;;;4.70;2.80;;;;;;;10.30;75.40;98897.88;104618;1273;75381;-24
2022/09/25 06:42:00;;;;;;;5.50;2.80;;;;;;;10.28;75.76;98897.02;104747;1271;76738;-25
2022/09/25 06:44:27;;;;;;;3.00;2.40;;;;;;;10.27;76.02;98897.73;104690;1273;74141;-24
2022/09/25 06:46:54;;;;;;;5.00;2.90;;;;;;;10.26;76.24;98894.40;104675;1273;61775;-24
2022/09/25 06:49:21;;;;;;;6.60;2.20;;;;;;;10.24;75.31;98894.52;104637;1273;63070;-24
2022/09/25 06:51:50;;;;;;;4.90;2.70;;;;;;;10.71;73.57;98895.27;104726;1271;76565;-24
2022/09/25 06:54:17;;;;;;;5.50;2.50;;;;;;;11.24;72.79;98892.84;104884;1271;76132;-24
2022/09/25 06:56:48;;;;;;;3.20;2.30;;;;;;;11.52;70.96;98894.63;104664;1273;71613;-24
2022/09/25 06:59:16;;;;;;;4.00;2.60;;;;;;;11.67;71.12;98891.48;104657;1271;63112;-24
2022/09/25 07:01:43;;;;;;;4.20;2.50;;;;;;;11.72;70.70;98894.73;104615;1273;61975;-25
2022/09/25 07:04:10;;;;;;;3.40;2.40;;;;;;;11.70;69.94;98892.29;104682;1271;76371;-24
2022/09/25 07:06:37;;;;;;;3.60;2.10;;;;;;;11.74;69.85;98890.73;104708;1272;77016;-25
2022/09/25 07:09:04;;;;;;;2.60;2.10;;;;;;;11.77;70.00;98886.83;104714;1271;73343;-25
2022/09/25 07:11:31;;;;;;;2.50;2.00;;;;;;;11.83;68.38;98889.30;104824;1273;61694;-24
2022/09/25 07:13:58;;;;;;;5.70;2.60;;;;;;;11.85;66.72;98882.61;105062;1272;63331;-24
2022/09/25 07:16:27;;;;;;;3.80;2.30;;;;;;;11.92;66.19;98877.16;105076;1273;76659;-24
2022/09/25 07:18:56;;;;;;;3.00;2.40;;;;;;;12.01;66.40;98878.44;104679;1273;77201;-24
2022/09/25 07:21:25;;;;;;;2.90;1.80;;;;;;;12.15;66.40;98880.59;104674;1272;73477;-24
2022/09/25 07:23:52;;;;;;;2.80;2.00;;;;;;;12.23;66.08;98880.34;104847;1271;61958;-24
2022/09/25 07:26:21;;;;;;;2.70;2.10;;;;;;;12.27;66.33;98883.14;105050;1273;61151;-24
2022/09/25 07:28:56;;;;;;;4.60;2.30;;;;;;;12.38;65.90;98882.10;104751;1274;76545;-24
2022/09/25 07:31:27;;;;;;;3.60;2.00;;;;;;;12.59;65.32;98880.21;105065;1274;76467;-24
2022/09/25 07:33:54;;;;;;;6.00;2.30;;;;;;;12.47;64.85;98881.07;104909;1273;75410;-24
2022/09/25 07:36:22;;;;;;;3.00;2.10;;;;;;;12.58;64.87;98878.56;104599;1273;62386;-24
2022/09/25 07:38:50;;;;;;;3.10;2.10;;;;;;;12.68;63.27;98879.91;104700;1273;61674;-24
2022/09/25 07:41:17;;;;;;;3.00;2.20;;;;;;;12.77;62.67;98876.11;104421;1273;76643;-24
2022/09/25 07:43:44;;;;;;;3.90;2.30;;;;;;;12.84;63.45;98878.92;104922;1273;76973;-24
2022/09/25 07:46:12;;;;;;;3.00;1.90;;;;;;;12.87;62.37;98874.44;104617;1273;74393;-24
2022/09/25 07:48:39;;;;;;;2.70;1.90;;;;;;;12.87;62.96;98872.02;104618;1273;62090;-24
2022/09/25 07:51:08;;;;;;;2.60;1.80;;;;;;;12.85;62.41;98870.69;104625;1273;63024;-24
2022/09/25 07:53:35;;;;;;;3.00;2.10;;;;;;;12.86;62.60;98871.29;104488;1273;76417;-24
2022/09/25 07:56:02;;;;;;;2.70;2.00;;;;;;;12.93;61.68;98867.13;104678;1271;76995;-24
2022/09/25 07:58:34;;;;;;;3.40;2.10;;;;;;;13.01;61.84;98868.79;104889;1273;74312;-24
2022/09/25 08:01:03;;;;;;;2.60;1.80;;;;;;;13.11;60.77;98867.70;104699;1273;62018;-24
2022/09/25 08:03:30;;;;;;;3.60;1.90;;;;;;;13.14;59.08;98867.91;104476;1273;62748;-24
2022/09/25 08:05:59;;;;;;;3.20;2.10;;;;;;;13.32;60.30;98862.54;104572;1273;77006;-24
2022/09/25 08:08:27;;;;;;;3.20;2.00;;;;;;;13.50;57.99;98862.48;104682;1274;76785;-24
2022/09/25 08:11:22;;;;;;;2.50;1.90;;;;;;;13.66;58.86;98865.78;104614;1273;75370;-24
2022/09/25 08:13:49;;;;;;;3.30;1.90;;;;;;;13.75;56.78;98864.10;104630;1273;62031;-25
2022/09/25 08:16:17;;;;;;;3.50;1.80;;;;;;;13.80;57.24;98865.86;104614;1273;62918;-25
2022/09/25 08:18:45;;;;;;;2.40;1.50;;;;;;;13.75;56.97;98868.92;104396;1273;75460;-24
2022/09/25 08:21:14;;;;;;;3.40;1.80;;;;;;;13.94;57.13;98868.36;104447;1273;76985;-24
2022/09/25 08:23:41;;;;;;;2.50;1.80;;;;;;;14.13;58.39;98865.92;104627;1274;75433;-24
2022/09/25 08:26:17;;;;;;;3.60;1.90;;;;;;;14.28;56.78;98865.04;104463;1273;63004;-25
2022/09/25 08:28:44;;;;;;;2.50;2.00;;;;;;;14.40;56.32;98866.58;104412;1273;63528;-24
2022/09/25 08:31:13;;;;;;;3.50;1.70;;;;;;;14.38;56.05;98864.52;104634;1274;76581;-25
2022/09/25 08:33:48;;;;;;;2.30;1.50;;;;;;;14.34;56.13;98873.16;104812;1273;77494;-24
2022/09/25 08:36:15;;;;;;;3.00;1.70;;;;;;;14.30;55.27;98869.55;104418;1273;74458;-24
2022/09/25 08:38:42;;;;;;;2.40;1.80;;;;;;;14.32;56.19;98869.09;104343;1273;62021;-25
2022/09/25 08:41:30;;;;;;;2.60;1.80;;;;;;;14.60;54.95;98867.10;104614;1273;62952;-24
2022/09/25 08:44:05;;;;;;;2.10;1.50;;;;;;;14.82;53.12;98862.59;104566;1273;75584;-24
2022/09/25 08:50:11;;;;;;;3.90;1.60;;;;;;;15.33;52.17;98867.21;104767;1273;75510;-25
2022/09/25 08:52:40;;;;;;;2.10;1.50;;;;;;;15.52;52.43;98866.99;104567;1273;63083;-24
2022/09/25 08:55:20;;;;;;;2.60;1.60;;;;;;;15.34;52.34;98864.56;104506;1273;61691;-24
2022/09/25 08:57:47;;;;;;;3.20;1.90;;;;;;;15.65;52.17;98864.21;104669;1273;76558;-25
2022/09/25 09:00:19;;;;;;;3.20;1.70;;;;;;;15.98;51.77;98857.05;104653;1273;76742;-25
2022/09/25 09:02:54;;;;;;;3.00;1.90;;;;;;;16.06;50.65;98850.11;104410;1273;75292;-25
2022/09/25 09:05:34;;;;;;;4.70;1.70;;;;;;;16.10;51.47;98848.56;104482;1273;63070;-24
2022/09/25 09:08:11;;;;;;;3.60;1.70;;;;;;;16.41;50.58;98841.21;105090;1273;61965;-25
2022/09/25 09:10:49;;;;;;;2.30;1.60;;;;;;;16.47;49.14;98839.86;104611;1273;75266;-24
2022/09/25 09:13:34;;;;;;;1.60;1.40;;;;;;;16.76;50.04;98834.11;104715;1273;75996;-24
2022/09/25 09:16:21;;;;;;;3.40;2.80;;;;;;;16.77;50.28;98835.73;104570;1275;75361;-25
2022/09/25 09:18:48;;;;;;;3.80;1.70;;;;;;;16.77;48.67;98830.00;104568;1273;62954;-25
2022/09/25 09:21:19;;;;;;;2.00;1.70;;;;;;;16.56;49.24;98836.12;104723;1273;62029;-25
2022/09/25 09:24:02;;;;;;;2.80;1.20;;;;;;;16.63;48.65;98833.11;104656;1273;77098;-25
2022/09/25 09:26:45;;;;;;;2.90;1.70;;;;;;;16.83;48.03;98832.66;104659;1273;75996;-25
2022/09/25 09:29:31;;;;;;;1.80;1.50;;;;;;;16.54;47.95;98830.24;104693;1273;74011;-25
2022/09/25 09:32:35;;;;;;;2.10;1.50;;;;;;;16.45;48.85;98830.90;104627;1273;61736;-24
2022/09/25 09:35:21;;;;;;;;;;;;;;;15.94;49.70;98834.00;104470;1273;63302;-25
2022/09/25 09:38:10;;;;;;;2.40;1.90;;;;;;;15.90;50.71;98828.88;104606;1273;76734;-24
2022/09/25 09:41:09;;;;;;;2.30;1.80;;;;;;;15.83;50.14;98829.10;104638;1273;75017;-24
2022/09/25 09:43:42;;;;;;;3.50;1.90;;;;;;;15.64;50.70;98823.41;104466;1273;74325;-25
2022/09/25 09:46:18;;;;;;;2.50;1.50;;;;;;;15.69;48.59;98818.85;104638;1273;63081;-25
2022/09/25 09:49:18;;;;;;;2.20;1.60;;;;;;;15.95;49.13;98815.22;104654;1274;62837;-25
2022/09/25 09:51:57;;;;;;;2.90;1.80;;;;;;;16.07;48.87;98812.73;104509;1273;76767;-25
2022/09/25 09:54:44;;;;;;;2.00;1.50;;;;;;;16.09;49.28;98798.95;104653;1273;76161;-24
2022/09/25 09:57:17;;;;;;;2.50;1.80;;;;;;;15.90;49.70;98804.70;104604;1273;74360;-25
2022/09/25 10:00:05;;;;;;;2.00;1.80;;;;;;;15.83;49.98;98798.98;104462;1273;62803;-24
2022/09/25 10:02:58;;;;;;;2.40;2.10;;;;;;;15.84;50.64;98793.73;104596;1273;61833;-24
2022/09/25 10:05:44;;;;;;;2.80;1.80;;;;;;;15.74;51.23;98788.21;104666;1273;76646;-24
2022/09/25 10:08:12;;;;;;;4.10;1.80;;;;;;;15.76;50.52;98786.04;104411;1273;76800;-25
2022/09/25 10:10:46;;;;;;;4.00;2.00;;;;;;;16.01;50.93;98785.02;104516;1274;75367;-25
2022/09/25 10:13:15;;;;;;;2.80;2.10;;;;;;;16.09;50.25;98779.94;104614;1274;62485;-23
2022/09/25 10:15:47;;;;;;;4.00;2.20;;;;;;;16.22;50.49;98772.77;104574;1273;62843;-23
2022/09/25 10:18:14;;;;;;;3.40;2.00;;;;;;;16.29;50.49;98767.09;104388;1273;75489;-24
2022/09/25 10:20:49;;;;;;;2.40;2.00;;;;;;;16.31;49.81;98767.42;104580;1273;77057;-24
2022/09/25 10:23:41;;;;;;;3.40;2.20;;;;;;;16.26;51.11;98760.97;104605;1274;74268;-24
2022/09/25 10:26:32;;;;;;;3.20;2.30;;;;;;;16.22;50.75;98763.64;104793;1272;61169;-23
2022/09/25 10:29:01;;;;;;;4.50;3.30;;;;;;;16.38;52.37;98763.77;104615;1271;63082;-24
2022/09/25 10:31:38;;;;;;;5.20;3.00;;;;;;;16.28;51.30;98758.40;104710;1272;76723;-24
2022/09/25 10:34:18;;;;;;;3.40;2.60;;;;;;;16.21;51.56;98764.91;104542;1273;75927;-23
2022/09/25 10:36:52;;;;;;;3.80;1.90;;;;;;;16.16;52.57;98758.50;104644;1271;74266;-23
2022/09/25 10:39:30;;;;;;;4.30;2.70;;;;;;;16.01;52.81;98755.41;103858;1271;1103696;-23
2022/09/25 10:42:31;;;;;;;3.40;2.50;;;;;;;15.87;53.71;98755.11;104713;1271;61957;-24
2022/09/25 10:44:58;;;;;;;4.40;3.00;;;;;;;15.75;54.04;98757.63;104899;1271;76325;-23
2022/09/25 10:50:21;;;;;;;4.20;2.80;;;;;;;15.72;53.12;98754.80;104636;1271;71468;-23
2022/09/25 10:52:57;;;;;;;3.90;2.60;;;;;;;15.69;53.51;98753.17;104657;1271;63049;-23
2022/09/25 10:55:35;;;;;;;5.00;2.40;;;;;;;15.72;53.69;98748.17;104671;1273;61772;-24
2022/09/25 10:58:03;;;;;;;4.90;2.90;;;;;;;15.74;53.62;98747.26;104446;1273;76366;-23
2022/09/25 11:00:33;;;;;;;6.20;3.20;;;;;;;15.71;55.01;98745.80;104819;1271;76959;-23
2022/09/25 11:03:01;;;;;;;3.70;2.70;;;;;;;15.79;53.05;98736.76;105047;1271;75421;-23
2022/09/25 11:05:34;;;;;;;4.50;2.30;;;;;;;15.67;53.76;98730.87;104846;1271;63174;-24
2022/09/25 11:08:04;;;;;;;4.20;3.10;;;;;;;15.74;53.30;98729.58;104649;1271;63045;-24
2022/09/25 11:10:46;;;;;;;5.40;3.30;;;;;;;15.70;52.69;98725.77;104481;1271;76131;-24
2022/09/25 11:13:19;;;;;;;3.80;2.80;;;;;;;15.80;54.31;98731.41;104677;1271;77035;-23
2022/09/25 11:15:47;;;;;;;5.40;2.90;;;;;;;16.09;53.20;98726.73;104670;1271;75662;-24
2022/09/25 11:18:36;;;;;;;6.30;3.10;;;;;;;16.15;52.80;98720.05;104418;1271;61155;-23
2022/09/25 11:21:05;;;;;;;5.30;2.80;;;;;;;16.23;51.52;98721.88;104674;1271;61773;-24
2022/09/25 11:23:42;;;;;;;3.70;2.80;;;;;;;16.20;51.56;98715.14;104547;1273;76950;-24
2022/09/25 11:26:13;;;;;;;3.70;2.70;;;;;;;16.22;51.51;98721.25;104711;1271;77058;-24
2022/09/25 11:28:53;;;;;;;4.80;3.50;;;;;;;16.02;51.49;98722.69;104847;1271;73529;-23
2022/09/25 11:31:36;;;;;;;6.00;2.90;;;;;;;15.71;52.56;98721.18;104750;1273;62031;-23
2022/09/25 11:34:10;;;;;;;4.80;3.00;;;;;;;15.62;52.72;98720.00;104927;1271;61666;-23
2022/09/25 11:36:47;;;;;;;4.50;2.70;;;;;;;15.65;52.34;98715.11;104802;1273;76220;-23
2022/09/25 11:42:47;;;;;;;4.70;3.00;;;;;;;16.45;51.01;98706.77;104529;1273;73446;-23
2022/09/25 11:45:23;;;;;;;3.80;2.60;;;;;;;16.36;51.15;98700.95;104652;1272;61841;-23
2022/09/25 11:48:05;;;;;;;3.10;2.40;;;;;;;16.13;51.18;98696.98;104612;1273;62025;-26
2022/09/25 11:51:03;;;;;;;4.10;2.80;;;;;;;15.98;51.60;98698.14;104650;1271;75354;-23
2022/09/25 11:53:40;;;;;;;5.30;2.70;;;;;;;16.06;51.86;98697.95;104770;1273;77014;-23
2022/09/25 11:56:29;;;;;;;9.40;3.40;;;;;;;16.02;51.54;98695.96;104772;1271;75298;-23
2022/09/25 11:59:37;;;;;;;5.70;2.70;;;;;;;15.95;50.78;98694.71;105026;1271;62893;-23
2022/09/25 12:02:35;;;;;;;7.40;3.10;;;;;;;15.84;52.20;98687.89;104978;1271;62787;-25
2022/09/25 12:06:47;;;;;;;5.00;2.70;;;;;;;15.82;53.05;98691.07;101697;1310;600153;-23
2022/09/25 12:09:36;;;;;;;4.50;2.60;;;;;;;15.73;52.91;98696.27;104280;1284;62059;-23
2022/09/25 12:12:26;;;;;;;4.20;2.60;;;;;;;15.82;52.42;98695.80;103990;1284;63041;-23
2022/09/25 12:15:19;;;;;;;4.90;2.70;;;;;;;15.89;52.44;98698.27;103692;1287;74994;-23
2022/09/25 12:18:00;;;;;;;8.30;2.90;;;;;;;15.82;52.29;98698.63;104197;1287;76750;-24